Time;durP1;ratioP1;P1;durP2;ratioP2;P2;SDS_P1;SDS_P2;PMS_P1;PMS_P2;Temp;Humidity;BMP_temperature;BMP_pressure;BME280_temperature;BME280_humidity;BME280_pressure;Samples;Min_cycle;Max_cycle;Signal;HPM_P1;HPM_P2
2023/01/08 00:00:41;;;;;;;;;;;;;;;-23.39;53.66;95655.28;6295560;28;19924;-67
2023/01/08 00:03:42;;;;;;;;;;;;;;;-23.39;53.34;95652.81;6295380;28;19924;-66
2023/01/08 00:06:47;;;;;;;;;;;;;;;-23.44;53.79;95641.78;6295220;28;20317;-67
2023/01/08 00:09:51;;;;;;;;;;;;;;;-23.49;53.60;95648.19;6295501;28;19925;-66
2023/01/08 00:12:54;;;;;;;;;;;;;;;-23.49;53.62;95660.63;6295296;28;19947;-66
2023/01/08 00:16:01;;;;;;;;;;;;;;;-23.55;53.71;95647.94;6294808;28;20341;-67
2023/01/08 00:19:04;;;;;;;;;;;;;;;-23.64;53.71;95649.22;6277936;28;19924;-67
2023/01/08 00:22:05;;;;;;;;;;;;;;;-23.61;54.20;95646.84;6280647;28;19931;-67
2023/01/08 00:25:07;;;;;;;;;;;;;;;-23.60;53.70;95651.06;6299967;28;20295;-67
2023/01/08 00:28:08;;;;;;;;;;;;;;;-23.59;53.68;95646.94;6298957;28;19930;-68
2023/01/08 00:31:10;;;;;;;;;;;;;;;-23.59;53.62;95642.81;6281560;28;19924;-66
2023/01/08 00:34:11;;;;;;;;;;;;;;;-23.59;53.46;95642.81;6299578;28;19924;-66
2023/01/08 00:37:17;;;;;;;;;;;;;;;-23.59;53.57;95652.78;6299448;28;20388;-67
2023/01/08 00:40:19;;;;;;;;;;;;;;;-23.59;53.52;95647.78;6298704;28;19931;-66
2023/01/08 00:43:22;;;;;;;;;;;;;;;-23.59;53.42;95656.91;6299563;28;19920;-66
2023/01/08 00:46:26;;;;;;;;;;;;;;;-23.61;53.51;95659.31;6281548;28;20015;-66
2023/01/08 00:49:28;;;;;;;;;;;;;;;-23.61;53.55;95646.84;6280799;28;20379;-67
2023/01/08 00:52:29;;;;;;;;;;;;;;;-23.64;53.72;95649.22;6281030;28;19928;-67
2023/01/08 00:55:29;;;;;;;;;;;;;;;-23.69;53.61;95644.81;6299065;28;19924;-67
2023/01/08 00:58:31;;;;;;;;;;;;;;;-23.70;53.73;95658.94;6299193;28;19932;-67
2023/01/08 01:01:32;;;;;;;;;;;;;;;-23.70;54.06;95668.03;6298120;28;19925;-67
2023/01/08 01:04:35;;;;;;;;;;;;;;;-23.71;53.79;95666.34;6299068;28;19924;-67
2023/01/08 01:07:37;;;;;;;;;;;;;;;-23.71;54.09;95673.81;6298964;28;20400;-67
2023/01/08 01:10:43;;;;;;;;;;;;;;;-23.70;53.92;95678.84;6298975;28;19924;-67
2023/01/08 01:13:46;;;;;;;;;;;;;;;-23.68;53.75;95676.41;6298191;28;20024;-67
2023/01/08 01:16:50;;;;;;;;;;;;;;;-23.69;53.62;95680.50;6298712;28;19925;-67
2023/01/08 01:19:50;;;;;;;;;;;;;;;-23.68;53.76;95681.38;6280947;28;19924;-67
2023/01/08 01:22:54;;;;;;;;;;;;;;;-23.69;53.67;95679.66;6297541;28;20315;-67
2023/01/08 01:25:57;;;;;;;;;;;;;;;-23.75;53.61;95672.78;6298681;28;19950;-67
2023/01/08 01:29:01;;;;;;;;;;;;;;;-23.82;53.78;95673.31;6297497;28;20027;-66
2023/01/08 01:32:02;;;;;;;;;;;;;;;-23.84;53.50;95673.22;6297552;28;19924;-67
2023/01/08 01:35:03;;;;;;;;;;;;;;;-23.85;53.97;95678.13;6279910;28;19924;-66
2023/01/08 01:38:04;;;;;;;;;;;;;;;-23.87;53.72;95679.69;6297102;28;19924;-67
2023/01/08 01:41:05;;;;;;;;;;;;;;;-23.92;53.88;95681.09;6297105;28;20306;-67
2023/01/08 01:44:24;;;;;;;;;;;;;;;-23.98;53.68;95685.78;6297195;28;19924;-66
2023/01/08 01:47:25;;;;;;;;;;;;;;;-23.99;54.36;95689.06;6297035;28;19927;-67
2023/01/08 01:50:26;;;;;;;;;;;;;;;-23.99;54.46;95684.09;6297150;28;20271;-68
2023/01/08 01:53:30;;;;;;;;;;;;;;;-24.01;54.50;95683.16;6296877;28;20386;-66
2023/01/08 01:56:34;;;;;;;;;;;;;;;-24.04;54.36;95681.38;6297782;28;20311;-66
2023/01/08 01:59:37;;;;;;;;;;;;;;;-24.08;54.47;95695.31;6296661;28;19934;-66
2023/01/08 02:02:42;;;;;;;;;;;;;;;-24.10;54.23;95691.91;6297496;28;19936;-66
2023/01/08 02:05:43;;;;;;;;;;;;;;;-24.15;54.58;95678.38;6296794;28;19931;-67
2023/01/08 02:08:53;;;;;;;;;;;;;;;-24.16;54.25;95686.63;6297399;28;19924;-67
2023/01/08 02:12:15;;;;;;;;;;;;;;;-24.14;54.69;95680.13;6296409;28;19924;-67
2023/01/08 02:15:16;;;;;;;;;;;;;;;-24.15;54.62;95678.38;6296974;28;19933;-67
2023/01/08 02:18:26;;;;;;;;;;;;;;;-24.16;54.57;95684.16;6297178;28;19924;-66
2023/01/08 02:21:45;;;;;;;;;;;;;;;-24.17;54.16;95677.50;6296960;28;20018;-66
2023/01/08 02:24:52;;;;;;;;;;;;;;;-24.18;54.44;95678.25;6296200;28;19931;-66
2023/01/08 02:27:53;;;;;;;;;;;;;;;-24.20;54.21;95684.78;6296990;28;20310;-66
2023/01/08 02:31:00;;;;;;;;;;;;;;;-24.21;54.48;95678.09;6295923;28;19928;-67
2023/01/08 02:34:01;;;;;;;;;;;;;;;-24.19;54.59;95686.50;6297142;28;19924;-67
2023/01/08 02:37:02;;;;;;;;;;;;;;;-24.15;54.81;95689.97;6296872;28;19947;-67
2023/01/08 02:40:10;;;;;;;;;;;;;;;-24.16;54.02;95686.63;6295658;28;19924;-67
2023/01/08 02:43:21;;;;;;;;;;;;;;;-24.17;54.72;95694.88;6296578;28;19925;-67
2023/01/08 02:46:24;;;;;;;;;;;;;;;-24.18;54.61;95693.16;6295712;28;20254;-67
2023/01/08 02:49:29;;;;;;;;;;;;;;;-24.18;54.33;95708.06;6296661;28;20029;-67
2023/01/08 02:52:32;;;;;;;;;;;;;;;-24.17;54.43;95704.84;6296494;28;19931;-66
2023/01/08 02:55:37;;;;;;;;;;;;;;;-24.14;54.31;95699.13;6295370;28;19930;-66
2023/01/08 02:58:40;;;;;;;;;;;;;;;-24.13;54.20;95701.69;6278042;28;20309;-67
2023/01/08 03:01:46;;;;;;;;;;;;;;;-24.10;54.52;95705.97;6296392;28;19924;-66
2023/01/08 03:04:53;;;;;;;;;;;;;;;-24.06;54.84;95722.72;6294593;28;19931;-67
2023/01/08 03:07:54;;;;;;;;;;;;;;;-24.02;54.82;95708.81;6295239;28;19925;-67
2023/01/08 03:11:04;;;;;;;;;;;;;;;-23.93;54.78;95707.63;6294687;28;19931;-65
2023/01/08 03:14:11;;;;;;;;;;;;;;;-23.84;54.34;95714.66;6295345;28;20404;-66
2023/01/08 03:17:17;;;;;;;;;;;;;;;-23.80;54.76;95711.53;6296012;28;19928;-66
2023/01/08 03:20:21;;;;;;;;;;;;;;;-23.82;54.37;95708.97;6296223;28;19925;-66
2023/01/08 03:23:25;;;;;;;;;;;;;;;-23.90;54.50;95701.94;6295868;28;19925;-66
2023/01/08 03:26:30;;;;;;;;;;;;;;;-23.98;54.71;95710.66;6278336;28;19924;-66
2023/01/08 03:29:32;;;;;;;;;;;;;;;-24.02;54.52;95709.69;6294914;28;19924;-66
2023/01/08 03:32:34;;;;;;;;;;;;;;;-24.04;54.77;95717.03;6295166;28;19930;-67
2023/01/08 03:35:36;;;;;;;;;;;;;;;-24.00;54.69;95729.63;6295192;28;19925;-67
2023/01/08 03:38:41;;;;;;;;;;;;;;;-23.97;54.58;95732.25;6294655;28;20448;-67
2023/01/08 03:41:42;;;;;;;;;;;;;;;-23.92;54.44;95725.88;6295035;28;19925;-67
2023/01/08 03:44:43;;;;;;;;;;;;;;;-23.89;54.54;95731.84;6294423;28;19925;-66
2023/01/08 03:47:47;;;;;;;;;;;;;;;-23.81;54.74;95734.69;6295111;28;19924;-66
2023/01/08 03:50:51;;;;;;;;;;;;;;;-23.72;54.40;95727.66;6294717;28;20397;-66
2023/01/08 03:53:55;;;;;;;;;;;;;;;-23.56;54.43;95735.81;6295620;28;20019;-67
2023/01/08 03:56:59;;;;;;;;;;;;;;;-23.39;54.25;95734.94;6298572;28;20287;-66
2023/01/08 03:59:59;;;;;;;;;;;;;;;-23.21;54.36;95740.75;6300504;28;19925;-67
2023/01/08 04:03:03;;;;;;;;;;;;;;;-23.08;54.08;95736.34;6300289;28;19924;-67
2023/01/08 04:06:06;;;;;;;;;;;;;;;-23.00;53.86;95742.50;6300261;28;19930;-67
2023/01/08 04:09:10;;;;;;;;;;;;;;;-23.01;54.00;95740.78;6300276;28;19963;-67
2023/01/08 04:12:11;;;;;;;;;;;;;;;-23.03;53.54;95737.41;6300252;28;19924;-67
2023/01/08 04:15:14;;;;;;;;;;;;;;;-23.07;53.95;95743.00;6300050;28;19924;-67
2023/01/08 04:18:17;;;;;;;;;;;;;;;-23.07;54.08;95743.00;6299724;28;20313;-67
2023/01/08 04:21:21;;;;;;;;;;;;;;;-23.05;54.03;95746.44;6299239;28;20295;-67
2023/01/08 04:24:22;;;;;;;;;;;;;;;-23.03;54.34;95739.88;6299048;28;19966;-66
2023/01/08 04:27:25;;;;;;;;;;;;;;;-22.99;54.60;95746.69;6299587;28;19924;-67
2023/01/08 04:30:26;;;;;;;;;;;;;;;-22.98;54.27;95753.38;6298558;28;19931;-66
2023/01/08 04:33:27;;;;;;;;;;;;;;;-22.96;53.78;95756.78;6298792;28;19935;-67
2023/01/08 04:36:30;;;;;;;;;;;;;;;-22.97;54.16;95765.06;6299702;28;20300;-67
2023/01/08 04:39:33;;;;;;;;;;;;;;;-22.94;54.04;95755.19;6299733;28;19928;-66
2023/01/08 04:42:34;;;;;;;;;;;;;;;-22.85;53.81;95755.59;6298911;28;19935;-67
2023/01/08 04:45:35;;;;;;;;;;;;;;;-22.90;54.06;95762.00;6298647;28;19924;-66
2023/01/08 04:48:36;;;;;;;;;;;;;;;-22.87;54.34;95767.13;6298073;28;20456;-67
2023/01/08 04:51:38;;;;;;;;;;;;;;;-22.78;54.38;95767.56;6298452;28;19924;-68
2023/01/08 04:54:39;;;;;;;;;;;;;;;-22.67;54.27;95763.03;6298955;28;20301;-68
2023/01/08 04:57:42;;;;;;;;;;;;;;;-22.54;54.07;95776.88;6299052;28;19971;-68
2023/01/08 05:00:43;;;;;;;;;;;;;;;-22.42;54.08;95777.41;6298282;28;19924;-67
2023/01/08 05:03:46;;;;;;;;;;;;;;;-22.31;54.08;95775.38;6297843;28;19930;-68
2023/01/08 05:06:49;;;;;;;;;;;;;;;-22.17;53.88;95778.44;6297897;28;19932;-68
2023/01/08 05:09:50;;;;;;;;;;;;;;;-22.01;53.96;95771.63;6279190;28;19925;-68
2023/01/08 05:12:52;;;;;;;;;;;;;;;-21.87;53.79;95783.84;6298324;28;20283;-67
2023/01/08 05:15:52;;;;;;;;;;;;;;;-21.77;54.20;95785.91;6297820;28;19924;-67
2023/01/08 05:19:12;;;;;;;;;;;;;;;-21.55;54.07;95782.63;6296577;28;19924;-68
2023/01/08 05:26:49;;;;;;;;;;;;;;;-20.97;53.41;95794.84;6298556;28;20124;-67
2023/01/08 05:29:50;;;;;;;;;;;;;;;-20.88;52.96;95800.19;6297905;28;19931;-67
2023/01/08 05:32:54;;;;;;;;;;;;;;;-20.79;52.76;95799.69;6298377;28;19924;-67
2023/01/08 05:35:59;;;;;;;;;;;;;;;-20.78;53.05;95805.53;6280626;28;19990;-67
2023/01/08 05:39:00;;;;;;;;;;;;;;;-20.78;52.92;95801.38;6297986;28;19925;-67
2023/01/08 05:42:02;;;;;;;;;;;;;;;-20.78;53.52;95796.38;6298188;28;19932;-68
2023/01/08 05:45:06;;;;;;;;;;;;;;;-20.62;53.11;95792.81;6297893;28;19924;-68
2023/01/08 05:48:09;;;;;;;;;;;;;;;-20.44;53.37;95798.44;6297557;28;19925;-67
2023/01/08 05:51:10;;;;;;;;;;;;;;;-20.22;53.37;95794.22;6297805;28;19924;-67
2023/01/08 05:54:11;;;;;;;;;;;;;;;-20.09;52.97;95801.34;6297260;28;19924;-67
2023/01/08 05:57:14;;;;;;;;;;;;;;;-20.04;53.08;95797.34;6297164;28;19977;-67
2023/01/08 06:00:15;;;;;;;;;;;;;;;-20.00;52.44;95813.34;6297820;28;19932;-67
2023/01/08 06:03:21;;;;;;;;;;;;;;;-19.96;52.89;95815.97;6297624;28;20305;-67
2023/01/08 06:06:22;;;;;;;;;;;;;;;-19.90;53.10;95817.84;6296432;28;19931;-68
2023/01/08 06:09:23;;;;;;;;;;;;;;;-19.79;52.93;95816.56;6297475;28;19925;-67
2023/01/08 06:12:24;;;;;;;;;;;;;;;-19.59;52.61;95814.69;6297411;28;19932;-67
2023/01/08 06:15:25;;;;;;;;;;;;;;;-19.36;52.08;95822.09;6296180;28;19978;-67
2023/01/08 06:18:27;;;;;;;;;;;;;;;-19.22;51.64;95820.91;6295994;28;19925;-67
2023/01/08 06:21:28;;;;;;;;;;;;;;;-19.06;51.89;95828.09;6296127;28;19923;-67
2023/01/08 06:24:31;;;;;;;;;;;;;;;-18.87;51.44;95827.03;6297016;28;19925;-68
2023/01/08 06:27:35;;;;;;;;;;;;;;;-18.70;51.76;95825.00;6297144;28;20015;-67
2023/01/08 06:30:41;;;;;;;;;;;;;;;-18.49;52.19;95833.97;6296708;28;19935;-67
2023/01/08 06:33:42;;;;;;;;;;;;;;;-18.29;51.28;95832.03;6296835;28;19930;-67
2023/01/08 06:36:43;;;;;;;;;;;;;;;-18.08;50.85;95834.31;6296615;28;19925;-67
2023/01/08 06:39:47;;;;;;;;;;;;;;;-17.92;50.52;95838.94;6278323;28;20001;-67
2023/01/08 06:42:48;;;;;;;;;;;;;;;-17.81;50.58;95840.09;6295581;28;20302;-67
2023/01/08 06:45:53;;;;;;;;;;;;;;;-17.69;51.09;95835.38;6296597;28;19928;-68
2023/01/08 06:48:54;;;;;;;;;;;;;;;-17.66;51.01;95849.66;6295899;28;19928;-68
2023/01/08 06:51:58;;;;;;;;;;;;;;;-17.72;50.89;95854.53;6296375;28;20398;-67
2023/01/08 06:54:59;;;;;;;;;;;;;;;-17.71;51.33;95857.09;6296196;28;19954;-72
2023/01/08 06:58:05;;;;;;;;;;;;;;;-17.61;50.89;95854.81;6296468;28;19924;-68
2023/01/08 07:01:14;;;;;;;;;;;;;;;-17.53;50.74;95850.84;6295748;28;20213;-68
2023/01/08 07:04:16;;;;;;;;;;;;;;;-17.40;50.70;95849.53;6296237;28;20372;-68
2023/01/08 07:07:17;;;;;;;;;;;;;;;-17.22;50.95;95858.38;6295314;28;19974;-67
2023/01/08 07:10:18;;;;;;;;;;;;;;;-17.01;50.61;95864.75;6295605;28;19925;-67
2023/01/08 07:13:21;;;;;;;;;;;;;;;-16.69;50.09;95875.56;6295616;28;20297;-67
2023/01/08 07:16:22;;;;;;;;;;;;;;;-16.39;49.89;95875.41;6295340;28;19924;-68
2023/01/08 07:19:23;;;;;;;;;;;;;;;-16.14;49.38;95886.88;6278455;28;19932;-67
2023/01/08 07:22:24;;;;;;;;;;;;;;;-15.95;48.86;95883.09;6295388;28;19924;-68
2023/01/08 07:25:26;;;;;;;;;;;;;;;-15.56;48.61;95887.22;6296026;28;19924;-68
2023/01/08 07:28:28;;;;;;;;;;;;;;;-12.48;46.02;95880.47;6295963;28;20013;-68
2023/01/08 07:31:32;;;;;;;;;;;;;;;-7.46;39.27;95884.06;6295128;28;19924;-69
2023/01/08 07:34:35;;;;;;;;;;;;;;;-3.43;34.45;95880.13;6295817;28;19924;-68
2023/01/08 07:37:39;;;;;;;;;;;;;;;-0.83;31.13;95885.88;6278434;28;20088;-68
2023/01/08 07:40:43;;;;;;;;;;;;;;;1.50;28.79;95879.06;6277890;28;19933;-67
2023/01/08 07:43:47;;;;;;;;;;;;;;;3.03;29.40;95884.72;6295698;28;19925;-66
2023/01/08 07:46:50;;;;;;;;;;;;;;;4.20;26.05;95878.53;6295543;28;19946;-68
2023/01/08 07:49:54;;;;;;;;;;;;;;;4.75;25.63;95885.81;6277900;28;19924;-67
2023/01/08 07:52:57;;;;;;;;;;;;;;;4.62;24.37;95885.69;6294358;28;19931;-67
2023/01/08 07:56:03;;;;;;;;;;;;;;;4.62;28.89;95885.69;6294857;28;19924;-67
2023/01/08 07:59:06;;;;;;;;;;;;;;;4.05;30.94;95883.66;6295416;28;20302;-67
2023/01/08 08:02:09;;;;;;;;;;;;;;;3.56;29.79;95893.25;6295201;28;19932;-68
2023/01/08 08:05:12;;;;;;;;;;;;;;;3.21;27.52;95887.28;6295580;28;19924;-68
2023/01/08 08:08:16;;;;;;;;;;;;;;;3.01;29.18;95891.75;6295306;28;19950;-68
2023/01/08 08:11:19;;;;;;;;;;;;;;;2.09;30.85;95895.38;6295529;28;19924;-68
2023/01/08 08:14:25;;;;;;;;;;;;;;;0.56;30.99;95897.78;6277392;28;19925;-69
2023/01/08 08:17:29;;;;;;;;;;;;;;;-1.15;33.58;95893.84;6295611;28;19925;-67
2023/01/08 08:20:30;;;;;;;;;;;;;;;-3.12;34.49;95895.59;6295208;28;19924;-67
2023/01/08 08:23:31;;;;;;;;;;;;;;;-4.28;36.84;95909.59;6294289;28;20278;-68
2023/01/08 08:26:35;;;;;;;;;;;;;;;-4.67;35.58;95907.00;6295395;28;19925;-68
2023/01/08 08:29:40;;;;;;;;;;;;;;;-5.24;35.53;95899.56;6295181;28;19924;-67
2023/01/08 08:32:41;;;;;;;;;;;;;;;-5.88;36.50;95904.13;6294776;28;20279;-68
2023/01/08 08:35:46;;;;;;;;;;;;;;;-6.63;35.80;95900.13;6295408;28;19935;-67
2023/01/08 08:38:50;;;;;;;;;;;;;;;-7.03;37.78;95905.75;6295108;28;19924;-67
2023/01/08 08:41:54;;;;;;;;;;;;;;;-6.98;35.40;95911.66;6277893;28;19924;-68
2023/01/08 08:44:59;;;;;;;;;;;;;;;-6.96;35.34;95922.72;6299619;28;20030;-68
2023/01/08 08:48:06;;;;;;;;;;;;;;;-6.57;35.06;95905.16;6299374;28;20420;-68
2023/01/08 08:51:11;;;;;;;;;;;;;;;-6.11;33.13;95907.06;6299189;28;20420;-68
2023/01/08 08:54:13;;;;;;;;;;;;;;;-5.53;33.19;95908.63;6298051;28;20093;-69
2023/01/08 08:57:16;;;;;;;;;;;;;;;-5.31;32.42;95913.41;6298940;28;19967;-67
2023/01/08 09:00:17;;;;;;;;;;;;;;;-4.88;31.55;95915.13;6298451;28;19931;-68
2023/01/08 09:03:25;;;;;;;;;;;;;;;-4.65;31.11;95920.63;6299074;28;20433;-67
2023/01/08 09:06:31;;;;;;;;;;;;;;;-4.05;29.70;95919.34;6298926;28;19974;-67
2023/01/08 09:09:32;;;;;;;;;;;;;;;-3.62;30.05;95920.91;6298560;28;19924;-69
2023/01/08 09:12:33;;;;;;;;;;;;;;;-3.30;28.87;95920.09;6298733;28;19924;-68
2023/01/08 09:15:36;;;;;;;;;;;;;;;-2.58;28.94;95917.28;6297768;28;19931;-67
2023/01/08 09:18:39;;;;;;;;;;;;;;;-1.66;27.08;95927.41;6298829;28;19931;-68
2023/01/08 09:21:40;;;;;;;;;;;;;;;-0.79;26.56;95933.94;6297994;28;19924;-68
2023/01/08 09:24:44;;;;;;;;;;;;;;;0.36;25.08;95938.25;6298649;28;19978;-68
2023/01/08 09:27:45;;;;;;;;;;;;;;;1.39;24.81;95930.53;6298308;28;19924;-68
2023/01/08 09:30:46;;;;;;;;;;;;;;;2.02;23.84;95933.75;6297423;28;19928;-68
2023/01/08 09:33:47;;;;;;;;;;;;;;;2.73;23.63;95939.03;6297634;28;19924;-69
2023/01/08 09:36:51;;;;;;;;;;;;;;;3.22;23.03;95946.16;6298127;28;20298;-67
2023/01/08 09:39:54;;;;;;;;;;;;;;;2.90;21.54;95951.22;6298148;28;19925;-67
2023/01/08 09:43:02;;;;;;;;;;;;;;;2.80;21.32;95960.34;6298561;28;19979;-67
2023/01/08 09:46:04;;;;;;;;;;;;;;;2.80;20.98;95960.34;6298444;28;19987;-68
2023/01/08 09:49:11;;;;;;;;;;;;;;;3.24;21.39;95965.97;6296749;28;19932;-67
2023/01/08 09:52:13;;;;;;;;;;;;;;;3.44;21.62;95967.53;6297807;28;19924;-68
2023/01/08 09:55:15;;;;;;;;;;;;;;;3.24;21.62;95965.97;6296414;28;20007;-66
2023/01/08 09:58:34;;;;;;;;;;;;;;;3.82;20.46;95972.50;6297563;28;19925;-67
2023/01/08 10:01:40;;;;;;;;;;;;;;;4.39;20.68;95972.13;6297635;28;19924;-68
2023/01/08 10:04:44;;;;;;;;;;;;;;;4.48;21.11;95987.22;6297604;28;19935;-68
2023/01/08 10:07:45;;;;;;;;;;;;;;;4.17;21.16;95982.84;6295957;28;19990;-67
2023/01/08 10:10:46;;;;;;;;;;;;;;;3.85;21.49;95992.34;6296762;28;19920;-67
2023/01/08 10:13:51;;;;;;;;;;;;;;;4.13;21.24;95989.13;6296585;28;19924;-68
2023/01/08 10:16:57;;;;;;;;;;;;;;;2.72;19.96;95983.25;6297327;28;19924;-69
2023/01/08 10:20:19;;;;;;;;;;;;;;;-1.27;23.68;95983.78;6297273;28;19946;-69
2023/01/08 10:23:23;;;;;;;;;;;;;;;-5.04;25.83;95994.97;6297083;28;19924;-67
2023/01/08 10:26:32;;;;;;;;;;;;;;;-7.45;29.58;96010.13;6297222;28;19935;-67
2023/01/08 10:29:33;;;;;;;;;;;;;;;-9.22;31.16;96010.22;6296006;28;20301;-67
2023/01/08 10:32:36;;;;;;;;;;;;;;;-10.81;32.87;96007.53;6296162;28;19924;-70
2023/01/08 10:35:41;;;;;;;;;;;;;;;-11.83;34.33;96012.00;6279305;28;19929;-69
2023/01/08 10:38:55;;;;;;;;;;;;;;;-12.57;34.29;96009.63;6295678;28;20015;-69
2023/01/08 10:42:02;;;;;;;;;;;;;;;-13.26;34.73;96007.19;6295742;28;19924;-68
2023/01/08 10:45:05;;;;;;;;;;;;;;;-13.91;35.20;96015.50;6295573;28;19935;-68
2023/01/08 10:48:07;;;;;;;;;;;;;;;-14.36;35.27;96020.66;6295510;28;20042;-67
2023/01/08 10:51:24;;;;;;;;;;;;;;;-14.78;36.06;96030.03;6296496;28;20410;-66
2023/01/08 10:54:34;;;;;;;;;;;;;;;-15.07;36.56;96039.56;6296276;28;19924;-70
2023/01/08 10:57:39;;;;;;;;;;;;;;;-15.15;36.53;96051.16;6296495;28;19925;-68
2023/01/08 11:00:42;;;;;;;;;;;;;;;-15.28;36.73;96049.19;6296334;28;19931;-69
2023/01/08 11:03:47;;;;;;;;;;;;;;;-15.77;37.34;96059.06;6295359;28;20297;-68
2023/01/08 11:06:49;;;;;;;;;;;;;;;-16.00;37.89;96062.72;6296252;28;19924;-68
2023/01/08 11:09:52;;;;;;;;;;;;;;;-16.15;38.20;96073.28;6277588;28;20431;-68
2023/01/08 11:12:58;;;;;;;;;;;;;;;-16.36;38.42;96076.97;6296139;28;19931;-67
2023/01/08 11:15:59;;;;;;;;;;;;;;;-16.44;38.81;96078.44;6294964;28;19928;-68
2023/01/08 11:19:00;;;;;;;;;;;;;;;-16.62;39.37;96077.94;6295009;28;20413;-68
2023/01/08 11:22:02;;;;;;;;;;;;;;;-16.77;39.63;96088.47;6294992;28;19930;-68
2023/01/08 11:25:11;;;;;;;;;;;;;;;-17.00;39.98;96090.34;6295298;28;19924;-68
2023/01/08 11:28:20;;;;;;;;;;;;;;;-17.33;40.48;96098.63;6295929;28;19924;-67
2023/01/08 11:31:24;;;;;;;;;;;;;;;-17.42;40.64;96105.91;6295444;28;20367;-67
2023/01/08 11:34:29;;;;;;;;;;;;;;;-17.63;41.12;96105.22;6294837;28;19931;-68
2023/01/08 11:37:32;;;;;;;;;;;;;;;-17.64;41.29;96114.44;6295609;28;19925;-68
2023/01/08 11:40:52;;;;;;;;;;;;;;;-17.81;41.53;96118.97;6294209;28;19932;-68
2023/01/08 11:44:04;;;;;;;;;;;;;;;-18.09;41.84;96128.91;6295553;28;19920;-67
2023/01/08 11:47:31;;;;;;;;;;;;;;;-18.15;41.78;96130.41;6295594;28;19932;-68
2023/01/08 11:50:41;;;;;;;;;;;;;;;-18.34;42.25;96138.13;6290775;28;19920;-67
2023/01/08 11:53:46;;;;;;;;;;;;;;;-18.51;43.03;96141.72;6294506;28;19958;-67
2023/01/08 11:56:56;;;;;;;;;;;;;;;-18.71;43.19;96146.91;6294916;28;20386;-68
2023/01/08 12:00:03;;;;;;;;;;;;;;;-18.78;42.95;96152.53;6295277;28;19924;-68
2023/01/08 12:03:15;;;;;;;;;;;;;;;-19.08;43.26;96165.66;6295032;28;20302;-67
2023/01/08 12:06:30;;;;;;;;;;;;;;;-19.24;43.79;96163.41;6295359;28;19925;-69
2023/01/08 12:09:40;;;;;;;;;;;;;;;-19.48;43.64;96161.66;6294257;28;19999;-68
2023/01/08 12:12:50;;;;;;;;;;;;;;;-19.58;43.97;96176.28;6295513;28;20433;-68
2023/01/08 12:16:10;;;;;;;;;;;;;;;-19.90;44.23;96177.53;6295484;28;19931;-69
2023/01/08 12:19:14;;;;;;;;;;;;;;;-20.09;44.56;96190.94;6281791;28;19932;-68
2023/01/08 12:22:21;;;;;;;;;;;;;;;-20.27;44.71;96193.53;6300106;28;19925;-68
2023/01/08 12:25:33;;;;;;;;;;;;;;;-20.49;44.34;96185.13;6300042;28;20007;-68
2023/01/08 12:28:36;;;;;;;;;;;;;;;-20.55;44.27;96197.38;6299886;28;19925;-68
2023/01/08 12:31:37;;;;;;;;;;;;;;;-20.65;44.65;96198.66;6298804;28;19931;-67
2023/01/08 12:34:38;;;;;;;;;;;;;;;-20.58;44.74;96202.25;6299834;28;19947;-68
2023/01/08 12:37:50;;;;;;;;;;;;;;;-20.44;44.35;96213.69;6298957;28;19931;-67
2023/01/08 12:40:54;;;;;;;;;;;;;;;-20.18;44.59;96217.31;6298915;28;19931;-68
2023/01/08 12:44:04;;;;;;;;;;;;;;;-20.39;44.33;96229.75;6299308;28;19936;-68
2023/01/08 12:47:12;;;;;;;;;;;;;;;-20.71;44.07;96225.91;6299467;28;20851;-67
2023/01/08 12:50:13;;;;;;;;;;;;;;;-20.63;44.16;96231.25;6298867;28;19925;-68
2023/01/08 12:53:25;;;;;;;;;;;;;;;-20.81;44.77;96245.41;6299111;28;19932;-68
2023/01/08 12:56:49;;;;;;;;;;;;;;;-20.97;45.04;96239.75;6297985;28;19928;-68
2023/01/08 13:00:06;;;;;;;;;;;;;;;-21.21;44.66;96243.59;6299000;28;19924;-68
2023/01/08 13:03:13;;;;;;;;;;;;;;;-21.35;44.86;96250.44;6298257;28;19939;-68
2023/01/08 13:06:16;;;;;;;;;;;;;;;-21.46;45.58;96252.47;6298922;28;20378;-69
2023/01/08 13:09:21;;;;;;;;;;;;;;;-21.57;45.37;96256.09;6297980;28;19928;-68
2023/01/08 13:12:42;;;;;;;;;;;;;;;-21.62;45.57;96255.03;6298140;28;19924;-68
2023/01/08 13:15:43;;;;;;;;;;;;;;;-21.71;45.62;96272.06;6298687;28;20306;-69
2023/01/08 13:18:54;;;;;;;;;;;;;;;-21.78;45.55;96275.91;6297424;28;20013;-67
2023/01/08 13:21:58;;;;;;;;;;;;;;;-21.61;45.75;96281.72;6297436;28;20365;-69
2023/01/08 13:25:08;;;;;;;;;;;;;;;-21.80;45.28;96280.81;6297566;28;19931;-68
2023/01/08 13:28:24;;;;;;;;;;;;;;;-21.76;45.45;96290.19;6297290;28;19920;-67
2023/01/08 13:31:28;;;;;;;;;;;;;;;-21.82;45.25;96287.38;6298317;28;19925;-68
2023/01/08 13:34:37;;;;;;;;;;;;;;;-21.93;45.35;96293.50;6279461;28;19928;-68
2023/01/08 13:37:38;;;;;;;;;;;;;;;-21.90;45.51;96291.16;6297874;28;19924;-69
2023/01/08 13:40:52;;;;;;;;;;;;;;;-21.81;45.19;96290.75;6298239;28;19924;-68
2023/01/08 13:44:05;;;;;;;;;;;;;;;-22.14;45.71;96293.25;6298242;28;20279;-67
2023/01/08 13:47:15;;;;;;;;;;;;;;;-22.14;45.55;96302.38;6296999;28;20011;-68
2023/01/08 13:50:21;;;;;;;;;;;;;;;-22.16;44.82;96304.81;6297115;28;19924;-68
2023/01/08 13:53:24;;;;;;;;;;;;;;;-22.33;45.68;96303.09;6296491;28;20007;-68
2023/01/08 13:56:25;;;;;;;;;;;;;;;-22.46;45.99;96301.63;6296605;28;19924;-68
2023/01/08 13:59:37;;;;;;;;;;;;;;;-22.46;45.67;96314.09;6297639;28;20390;-68
2023/01/08 14:02:43;;;;;;;;;;;;;;;-22.61;45.67;96318.28;6296797;28;19925;-69
2023/01/08 14:05:44;;;;;;;;;;;;;;;-22.74;45.93;96332.59;6297606;28;19931;-68
2023/01/08 14:08:49;;;;;;;;;;;;;;;-22.91;46.13;96335.81;6296570;28;19924;-68
2023/01/08 14:11:54;;;;;;;;;;;;;;;-22.95;46.16;96336.44;6297623;28;19931;-69
2023/01/08 14:14:58;;;;;;;;;;;;;;;-22.87;46.58;96334.34;6296780;28;20293;-68
2023/01/08 14:18:00;;;;;;;;;;;;;;;-22.90;46.30;96340.88;6297159;28;19928;-68
2023/01/08 14:21:04;;;;;;;;;;;;;;;-22.93;46.48;96349.81;6297155;28;20454;-68
2023/01/08 14:24:06;;;;;;;;;;;;;;;-22.97;46.55;96343.00;6297026;28;20306;-69
2023/01/08 14:27:18;;;;;;;;;;;;;;;-22.96;46.41;96349.69;6278690;28;20413;-67
2023/01/08 14:30:20;;;;;;;;;;;;;;;-23.05;46.56;96344.22;6297078;28;19924;-68
2023/01/08 14:33:29;;;;;;;;;;;;;;;-22.94;46.67;96343.13;6296997;28;20077;-69
2023/01/08 14:36:33;;;;;;;;;;;;;;;-22.97;46.42;96347.97;6295876;28;19924;-69
2023/01/08 14:39:37;;;;;;;;;;;;;;;-22.96;46.38;96355.53;6296261;28;19924;-69
2023/01/08 14:42:43;;;;;;;;;;;;;;;-22.94;46.40;96348.13;6296795;28;19931;-68
2023/01/08 14:45:46;;;;;;;;;;;;;;;-23.05;46.72;96355.03;6295597;28;19925;-69
2023/01/08 14:48:50;;;;;;;;;;;;;;;-22.97;46.75;96358.81;6296544;28;19928;-67
2023/01/08 14:51:51;;;;;;;;;;;;;;;-22.60;46.33;96349.91;6295447;28;19931;-69
2023/01/08 14:54:58;;;;;;;;;;;;;;;-22.51;46.18;96360.38;6296242;28;19931;-68
2023/01/08 14:58:00;;;;;;;;;;;;;;;-22.45;46.74;96370.66;6295657;28;20420;-68
2023/01/08 15:01:04;;;;;;;;;;;;;;;-22.35;46.04;96377.88;6295657;28;19924;-68
2023/01/08 15:04:19;;;;;;;;;;;;;;;-22.19;46.10;96373.66;6294958;28;20394;-69
2023/01/08 15:07:28;;;;;;;;;;;;;;;-22.13;46.19;96381.41;6278385;28;19932;-68
2023/01/08 15:10:41;;;;;;;;;;;;;;;-22.06;45.82;96385.97;6295260;28;19928;-68
2023/01/08 15:13:42;;;;;;;;;;;;;;;-22.03;46.29;96381.97;6295986;28;20306;-69
2023/01/08 15:16:48;;;;;;;;;;;;;;;-21.88;46.40;96386.91;6295761;28;20413;-67
2023/01/08 15:19:55;;;;;;;;;;;;;;;-21.85;46.65;96396.19;6295152;28;19936;-69
2023/01/08 15:22:56;;;;;;;;;;;;;;;-21.58;45.98;96391.72;6295013;28;20063;-69
2023/01/08 15:25:57;;;;;;;;;;;;;;;-21.51;45.84;96393.72;6295050;28;19932;-68
2023/01/08 15:28:59;;;;;;;;;;;;;;;-21.41;45.96;96400.91;6296070;28;20294;-69
2023/01/08 15:32:12;;;;;;;;;;;;;;;-21.30;45.68;96399.78;6295914;28;19924;-69
2023/01/08 15:35:15;;;;;;;;;;;;;;;-21.28;45.89;96396.47;6277927;28;19962;-69
2023/01/08 15:38:19;;;;;;;;;;;;;;;-21.28;45.85;96409.84;6278315;28;19925;-68
2023/01/08 15:44:43;;;;;;;;;;;;;;;-21.19;45.70;96421.94;6295681;28;19931;-69
2023/01/08 15:47:46;;;;;;;;;;;;;;;-21.17;45.56;96415.34;6294982;28;19924;-68
2023/01/08 15:50:51;;;;;;;;;;;;;;;-21.19;46.11;96419.44;6294900;28;19924;-68
2023/01/08 15:53:52;;;;;;;;;;;;;;;-21.21;45.83;96421.00;6299838;28;20037;-67
2023/01/08 15:56:55;;;;;;;;;;;;;;;-21.28;46.72;96416.47;6299711;28;20023;-68
2023/01/08 15:59:59;;;;;;;;;;;;;;;-21.34;46.35;96417.91;6282464;28;19932;-68